Map

Track Data

SID SEASON NUMBER BASIN SUBBASIN NAME ISO_TIME NATURE LAT LON WMO_WIND WMO_PRES WMO_AGENCY TRACK_TYPE DIST2LAND LANDFALL IFLAG USA_AGENCY USA_ATCF_ID USA_LAT USA_LON USA_RECORD USA_STATUS USA_WIND USA_PRES USA_SSHS USA_R34_NE USA_R34_SE USA_R34_SW USA_R34_NW USA_R50_NE USA_R50_SE USA_R50_SW USA_R50_NW USA_R64_NE USA_R64_SE USA_R64_SW USA_R64_NW USA_POCI USA_ROCI USA_RMW USA_EYE TOKYO_LAT TOKYO_LON TOKYO_GRADE TOKYO_WIND TOKYO_PRES TOKYO_R50_DIR TOKYO_R50_LONG TOKYO_R50_SHORT TOKYO_R30_DIR TOKYO_R30_LONG TOKYO_R30_SHORT TOKYO_LAND CMA_LAT CMA_LON CMA_CAT CMA_WIND CMA_PRES HKO_LAT HKO_LON HKO_CAT HKO_WIND HKO_PRES NEWDELHI_LAT NEWDELHI_LON NEWDELHI_GRADE NEWDELHI_WIND NEWDELHI_PRES NEWDELHI_CI NEWDELHI_DP NEWDELHI_POCI REUNION_LAT REUNION_LON REUNION_TYPE REUNION_WIND REUNION_PRES REUNION_TNUM REUNION_CI REUNION_RMW REUNION_R34_NE REUNION_R34_SE REUNION_R34_SW REUNION_R34_NW REUNION_R50_NE REUNION_R50_SE REUNION_R50_SW REUNION_R50_NW REUNION_R64_NE REUNION_R64_SE REUNION_R64_SW REUNION_R64_NW BOM_LAT BOM_LON BOM_TYPE BOM_WIND BOM_PRES BOM_TNUM BOM_CI BOM_RMW BOM_R34_NE BOM_R34_SE BOM_R34_SW BOM_R34_NW BOM_R50_NE BOM_R50_SE BOM_R50_SW BOM_R50_NW BOM_R64_NE BOM_R64_SE BOM_R64_SW BOM_R64_NW BOM_ROCI BOM_POCI BOM_EYE BOM_POS_METHOD BOM_PRES_METHOD NADI_LAT NADI_LON NADI_CAT NADI_WIND NADI_PRES WELLINGTON_LAT WELLINGTON_LON WELLINGTON_WIND WELLINGTON_PRES DS824_LAT DS824_LON DS824_STAGE DS824_WIND DS824_PRES TD9636_LAT TD9636_LON TD9636_STAGE TD9636_WIND TD9636_PRES TD9635_LAT TD9635_LON TD9635_WIND TD9635_PRES TD9635_ROCI NEUMANN_LAT NEUMANN_LON NEUMANN_CLASS NEUMANN_WIND NEUMANN_PRES MLC_LAT MLC_LON MLC_CLASS MLC_WIND MLC_PRES USA_GUST BOM_GUST BOM_GUST_PER REUNION_GUST REUNION_GUST_PER USA_SEAHGT USA_SEARAD_NE USA_SEARAD_SE USA_SEARAD_SW USA_SEARAD_NW STORM_SPEED STORM_DIR
1939027S32157 1939 11 SP EA NOT_NAMED 1939-01-26 12:00:00 NR -31.6000 156.800 main 355 355 __________O___ -1 -31.6000 156.800 7 1 136
1939027S32157 1939 11 SP EA NOT_NAMED 1939-01-26 15:00:00 NR -31.6405 156.838 main 355 355 __________P___ -1 -31.6405 156.838 7 1 139
1939027S32157 1939 11 SP EA NOT_NAMED 1939-01-26 18:00:00 NR -31.6948 156.891 main 366 366 __________P___ -1 -31.6948 156.891 7 2 140
1939027S32157 1939 11 SP EA NOT_NAMED 1939-01-26 21:00:00 NR -31.7767 156.973 main 377 377 __________P___ -1 -31.7767 156.973 7 3 139
1939027S32157 1939 11 SP EA NOT_NAMED 1939-01-27 00:00:00 NR -31.9000 157.100 main 388 388 __________O___ -1 -31.9000 157.100 7 4 138
1939027S32157 1939 11 SP EA NOT_NAMED 1939-01-27 03:00:00 NR -32.0723 157.281 main 412 412 __________P___ -1 -32.0723 157.281 7 5 138
1939027S32157 1939 11 SP EA NOT_NAMED 1939-01-27 06:00:00 NR -32.2777 157.504 main 436 436 __________P___ -1 -32.2777 157.504 7 6 137
1939027S32157 1939 11 SP EA NOT_NAMED 1939-01-27 09:00:00 NR -32.4942 157.750 main 470 470 __________P___ -1 -32.4942 157.750 7 6 135
1939027S32157 1939 11 SP EA NOT_NAMED 1939-01-27 12:00:00 NR -32.7000 158.000 main 494 494 __________O___ -1 -32.7000 158.000 7 5 133
1939027S32157 1939 11 SP EA NOT_NAMED 1939-01-27 15:00:00 NR -32.8559 158.210 main 520 520 __________P___ -1 -32.8559 158.210 7 5 130
1939027S32157 1939 11 SP EA NOT_NAMED 1939-01-27 18:00:00 NR -32.9995 158.421 main 541 541 __________P___ -1 -32.9995 158.421 7 5 128
1939027S32157 1939 11 SP EA NOT_NAMED 1939-01-27 21:00:00 NR -33.1433 158.647 main 562 562 __________P___ -1 -33.1433 158.647 7 5 127
1939027S32157 1939 11 SP EA NOT_NAMED 1939-01-28 00:00:00 NR -33.3000 158.900 main 594 594 __________O___ -1 -33.3000 158.900 7 6 127
1939027S32157 1939 11 SP EA NOT_NAMED 1939-01-28 03:00:00 NR -33.4815 159.188 main 627 627 __________P___ -1 -33.4815 159.188 7 6 127
1939027S32157 1939 11 SP EA NOT_NAMED 1939-01-28 06:00:00 NR -33.6773 159.505 main 660 660 __________P___ -1 -33.6773 159.505 7 7 126
1939027S32157 1939 11 SP EA NOT_NAMED 1939-01-28 09:00:00 NR -33.8845 159.845 main 693 693 __________P___ -1 -33.8845 159.845 7 7 126
1939027S32157 1939 11 SP MM NOT_NAMED 1939-01-28 12:00:00 NR -34.1000 160.200 main 735 735 __________O___ -1 -34.1000 160.200 7 7 126
1939027S32157 1939 11 SP MM NOT_NAMED 1939-01-28 15:00:00 NR -34.3211 160.565 main 777 777 __________P___ -1 -34.3211 160.565 7 8 126
1939027S32157 1939 11 SP MM NOT_NAMED 1939-01-28 18:00:00 NR -34.5459 160.938 main 810 810 __________P___ -1 -34.5459 160.938 7 8 126
1939027S32157 1939 11 SP MM NOT_NAMED 1939-01-28 21:00:00 NR -34.7727 161.317 main 855 855 __________P___ -1 -34.7727 161.317 7 8 126
1939027S32157 1939 11 SP MM NOT_NAMED 1939-01-29 00:00:00 NR -35.0000 161.700 main 897 __________O___ -1 -35.0000 161.700 7 8 126

Digital Typhoon Data and Search

About IBTrACS Database

This database is a web-friendly format of International Best Track Archive for Climate Stewardship (IBTrACS), a global best track data archive curated by NOAA dating back to 1842.

Updated: 2021-10-08